Time;durP1;ratioP1;P1;durP2;ratioP2;P2;SDS_P1;SDS_P2;PMS_P1;PMS_P2;Temp;Humidity;BMP_temperature;BMP_pressure;BME280_temperature;BME280_humidity;BME280_pressure;Samples;Min_cycle;Max_cycle;Signal;HPM_P1;HPM_P2
2022/03/27 00:00:52;;;;;;;14.20;7.63;;;11.70;84.80;;;;;;7390078;19;20504;-77
2022/03/27 00:03:18;;;;;;;13.20;7.10;;;11.50;84.70;;;;;;7386384;19;20131;-76
2022/03/27 00:05:44;;;;;;;13.67;7.70;;;11.50;85.00;;;;;;7389528;19;20499;-76
2022/03/27 00:08:09;;;;;;;15.37;7.83;;;11.40;85.10;;;;;;7386712;19;20123;-76
2022/03/27 00:11:23;;;;;;;15.10;7.60;;;11.30;85.80;;;;;;7388223;19;20127;-77
2022/03/27 00:13:21;;;;;;;12.93;8.37;;;11.40;85.50;;;;;;7385623;19;20173;-77
2022/03/27 00:15:47;;;;;;;16.07;7.73;;;11.70;85.60;;;;;;7387157;19;20119;-77
2022/03/27 00:18:13;;;;;;;16.50;7.40;;;11.70;85.10;;;;;;7386789;19;20144;-76
2022/03/27 00:20:38;;;;;;;14.73;7.30;;;11.60;85.40;;;;;;7386737;19;20648;-76
2022/03/27 00:23:04;;;;;;;14.53;7.10;;;11.70;85.40;;;;;;7386636;19;20478;-76
2022/03/27 00:25:30;;;;;;;14.13;7.23;;;11.70;85.90;;;;;;7387738;19;20127;-77
2022/03/27 00:27:56;;;;;;;17.47;8.17;;;11.80;85.40;;;;;;7384150;19;20166;-76
2022/03/27 00:30:21;;;;;;;15.93;7.93;;;11.80;85.20;;;;;;7384953;19;20155;-77
2022/03/27 00:32:47;;;;;;;14.37;7.50;;;11.80;85.10;;;;;;7385234;19;20163;-76
2022/03/27 00:35:13;;;;;;;17.57;7.83;;;11.30;85.80;;;;;;7384840;19;20150;-76
2022/03/27 00:37:38;;;;;;;13.77;8.27;;;11.10;86.80;;;;;;7385788;19;20131;-77
2022/03/27 00:40:05;;;;;;;14.50;7.63;;;11.00;87.30;;;;;;7387133;19;20140;-77
2022/03/27 00:42:30;;;;;;;14.43;7.37;;;10.80;87.70;;;;;;7387348;19;20533;-77
2022/03/27 00:44:56;;;;;;;12.35;7.25;;;10.90;88.40;;;;;;7387891;19;20198;-77
2022/03/27 00:47:22;;;;;;;10.67;6.60;;;11.20;87.40;;;;;;7383447;19;20875;-76
2022/03/27 00:49:48;;;;;;;15.27;8.10;;;11.30;87.10;;;;;;7384838;19;20126;-77
2022/03/27 00:52:13;;;;;;;13.03;7.07;;;11.40;87.00;;;;;;7386054;19;20135;-76
2022/03/27 00:54:39;;;;;;;15.67;7.90;;;11.40;86.90;;;;;;7386685;19;20135;-76
2022/03/27 00:57:05;;;;;;;16.13;7.50;;;11.40;87.10;;;;;;7384561;19;20730;-77
2022/03/27 00:59:31;;;;;;;13.43;7.90;;;11.50;87.00;;;;;;7385445;19;20198;-76
2022/03/27 01:01:57;;;;;;;12.77;7.47;;;11.60;87.50;;;;;;7389212;19;20242;-77
2022/03/27 01:04:22;;;;;;;16.60;7.63;;;11.50;86.90;;;;;;7387198;19;20662;-77
2022/03/27 01:06:48;;;;;;;15.63;7.37;;;11.60;87.00;;;;;;7386583;19;20135;-76
2022/03/27 01:09:36;;;;;;;18.20;8.03;;;11.50;87.30;;;;;;7384624;19;20161;-76
2022/03/27 01:12:23;;;;;;;14.77;7.47;;;11.50;87.40;;;;;;7384662;19;20138;-77
2022/03/27 01:14:53;;;;;;;16.30;7.90;;;11.50;87.20;;;;;;7384067;19;20134;-77
2022/03/27 01:17:21;;;;;;;15.27;8.83;;;11.20;87.70;;;;;;7383273;19;20130;-77
2022/03/27 01:19:56;;;;;;;17.13;8.10;;;10.90;89.40;;;;;;7382374;19;20130;-76
2022/03/27 01:22:23;;;;;;;14.00;8.37;;;10.90;89.40;;;;;;7385806;19;20606;-76
2022/03/27 01:24:50;;;;;;;17.10;8.53;;;10.70;90.00;;;;;;7383273;19;20149;-78
2022/03/27 01:27:17;;;;;;;19.90;8.40;;;10.70;89.90;;;;;;7387061;19;20760;-77
2022/03/27 01:29:43;;;;;;;16.87;8.60;;;10.50;90.40;;;;;;7389318;19;20171;-76
2022/03/27 01:32:14;;;;;;;19.40;9.10;;;10.30;90.50;;;;;;7385347;19;20139;-76
2022/03/27 01:34:40;;;;;;;15.73;7.67;;;10.40;90.60;;;;;;7381808;19;20206;-76
2022/03/27 01:37:08;;;;;;;14.30;8.20;;;10.40;90.60;;;;;;7382870;19;20139;-76
2022/03/27 01:39:34;;;;;;;16.80;8.83;;;10.50;90.60;;;;;;7384025;19;20149;-77
2022/03/27 01:42:00;;;;;;;15.37;8.17;;;10.50;90.60;;;;;;7385008;19;20222;-76
2022/03/27 01:44:26;;;;;;;15.10;8.80;;;10.40;90.70;;;;;;7383528;19;20131;-76
2022/03/27 01:46:52;;;;;;;20.70;8.43;;;10.50;90.80;;;;;;7383953;19;20134;-76
2022/03/27 01:49:19;;;;;;;16.67;7.67;;;10.40;90.50;;;;;;7389509;19;20148;-76
2022/03/27 01:51:46;;;;;;;17.07;8.17;;;10.50;90.80;;;;;;7398259;19;20135;-76
2022/03/27 01:54:12;;;;;;;14.30;7.50;;;10.60;90.60;;;;;;7387120;19;20131;-76
2022/03/27 01:56:40;;;;;;;15.93;6.83;;;10.70;90.40;;;;;;7383097;19;20202;-77
2022/03/27 01:59:07;;;;;;;16.03;7.60;;;10.80;90.10;;;;;;7387721;19;20151;-76
2022/03/27 02:01:34;;;;;;;16.50;7.30;;;10.10;90.60;;;;;;7391866;19;20146;-76
2022/03/27 02:04:00;;;;;;;13.57;7.37;;;10.00;91.30;;;;;;7389824;19;20603;-77
2022/03/27 02:06:26;;;;;;;14.60;7.60;;;10.30;91.10;;;;;;7391000;19;20130;-76
2022/03/27 02:08:52;;;;;;;12.83;7.10;;;10.30;90.80;;;;;;7390510;19;20131;-76
2022/03/27 02:11:19;;;;;;;18.73;7.77;;;10.00;91.10;;;;;;7394574;19;20210;-77
2022/03/27 02:13:47;;;;;;;12.57;6.87;;;10.00;91.40;;;;;;7402234;19;20134;-75
2022/03/27 02:16:13;;;;;;;14.07;6.83;;;9.90;91.60;;;;;;7397441;19;20134;-77
2022/03/27 02:18:41;;;;;;;13.77;7.93;;;10.00;91.90;;;;;;7392509;19;20197;-77
2022/03/27 02:21:07;;;;;;;20.70;8.33;;;10.00;91.70;;;;;;7393999;19;20123;-77
2022/03/27 02:23:32;;;;;;;11.30;6.77;;;9.70;92.10;;;;;;7392102;19;20581;-76
2022/03/27 02:25:58;;;;;;;15.73;7.35;;;9.60;92.40;;;;;;7393522;19;20198;-77
2022/03/27 02:28:24;;;;;;;13.10;7.20;;;9.80;92.60;;;;;;7394107;19;20158;-78
2022/03/27 02:30:51;;;;;;;20.37;7.20;;;9.90;92.40;;;;;;7390416;19;20883;-77
2022/03/27 02:33:16;;;;;;;13.27;6.83;;;10.00;92.30;;;;;;7395538;19;20150;-77
2022/03/27 02:35:42;;;;;;;14.57;6.87;;;10.10;92.20;;;;;;7391835;19;20139;-76
2022/03/27 02:38:08;;;;;;;14.70;7.33;;;10.30;92.10;;;;;;7397392;19;20611;-76
2022/03/27 02:40:36;;;;;;;14.37;7.37;;;10.20;92.10;;;;;;7391258;19;20495;-76
2022/03/27 02:43:02;;;;;;;15.60;7.73;;;10.50;91.80;;;;;;7393811;19;20156;-76
2022/03/27 02:45:28;;;;;;;15.90;8.07;;;10.60;91.30;;;;;;7391611;19;20555;-76
2022/03/27 02:47:54;;;;;;;13.37;7.20;;;10.60;91.30;;;;;;7389044;19;20456;-76
2022/03/27 02:50:20;;;;;;;12.80;6.93;;;10.50;91.30;;;;;;7391505;19;20138;-76
2022/03/27 02:52:46;;;;;;;15.97;7.93;;;10.20;91.90;;;;;;7390249;19;20130;-77
2022/03/27 02:55:12;;;;;;;15.20;7.63;;;10.30;91.90;;;;;;7394716;19;20617;-76
2022/03/27 02:57:38;;;;;;;15.33;7.50;;;10.30;91.60;;;;;;7400756;19;20138;-77
2022/03/27 03:00:06;;;;;;;18.03;8.33;;;10.40;91.70;;;;;;7391120;19;20140;-75
2022/03/27 03:02:36;;;;;;;15.87;7.73;;;10.40;91.60;;;;;;7390332;19;20131;-75
2022/03/27 03:05:04;;;;;;;14.33;7.73;;;10.50;91.50;;;;;;7391000;19;20151;-76
2022/03/27 03:07:30;;;;;;;15.80;8.27;;;10.50;91.60;;;;;;7390080;19;20506;-76
2022/03/27 03:09:56;;;;;;;17.37;8.20;;;10.40;91.70;;;;;;7389305;19;20131;-76
2022/03/27 03:12:22;;;;;;;17.23;7.83;;;10.40;91.90;;;;;;7391620;19;20135;-77
2022/03/27 03:14:48;;;;;;;15.00;8.23;;;10.40;92.00;;;;;;7390957;19;20636;-75
2022/03/27 03:17:13;;;;;;;13.80;7.83;;;10.10;92.10;;;;;;7389729;19;20137;-76
2022/03/27 03:19:39;;;;;;;14.43;7.90;;;10.10;92.20;;;;;;7396630;19;20123;-77
2022/03/27 03:22:07;;;;;;;12.70;7.63;;;10.10;92.20;;;;;;7389283;19;20122;-76
2022/03/27 03:24:34;;;;;;;14.40;7.13;;;10.20;91.90;;;;;;7388253;19;20134;-76
2022/03/27 03:27:00;;;;;;;19.17;7.73;;;10.20;91.80;;;;;;7387791;19;20135;-76
2022/03/27 03:29:26;;;;;;;17.43;7.67;;;10.10;91.90;;;;;;7387215;19;20151;-77
2022/03/27 03:31:52;;;;;;;15.47;7.67;;;10.10;92.30;;;;;;7392462;19;20160;-76
2022/03/27 03:34:17;;;;;;;12.37;7.67;;;9.80;92.30;;;;;;7388669;19;20146;-76
2022/03/27 03:36:46;;;;;;;20.00;7.03;;;9.80;92.70;;;;;;7388744;19;20118;-76
2022/03/27 03:39:11;;;;;;;13.80;7.53;;;9.70;92.60;;;;;;7393420;19;20403;-75
2022/03/27 03:41:37;;;;;;;17.20;7.03;;;9.30;93.10;;;;;;7395544;19;20468;-76
2022/03/27 03:44:03;;;;;;;15.03;7.47;;;9.50;93.40;;;;;;7394005;19;20142;-76
2022/03/27 03:46:29;;;;;;;13.63;7.17;;;9.80;93.10;;;;;;7388362;19;20130;-76
2022/03/27 03:48:55;;;;;;;12.13;6.97;;;10.00;92.80;;;;;;7389860;19;20133;-77
2022/03/27 03:51:21;;;;;;;12.70;7.40;;;10.10;92.60;;;;;;7388139;19;20141;-75
2022/03/27 03:53:46;;;;;;;16.33;7.83;;;10.10;92.60;;;;;;7390005;19;20123;-76
2022/03/27 03:56:12;;;;;;;15.70;8.00;;;10.10;93.00;;;;;;7390049;19;20135;-76
2022/03/27 03:58:38;;;;;;;14.97;7.70;;;10.00;92.80;;;;;;7389648;19;20135;-75
2022/03/27 04:01:04;;;;;;;18.17;8.70;;;10.00;92.80;;;;;;7395537;19;20138;-75
2022/03/27 04:03:30;;;;;;;17.10;7.97;;;10.00;92.90;;;;;;7391580;19;20126;-76
2022/03/27 04:05:56;;;;;;;17.70;7.37;;;10.00;92.90;;;;;;7386842;19;20130;-75
2022/03/27 04:08:22;;;;;;;18.13;8.13;;;9.80;93.10;;;;;;7389630;19;20127;-76
2022/03/27 04:10:48;;;;;;;16.90;7.20;;;9.70;93.20;;;;;;7389641;19;20134;-76
2022/03/27 04:13:14;;;;;;;16.13;8.30;;;9.70;93.40;;;;;;7387559;19;20131;-76
2022/03/27 04:15:40;;;;;;;15.30;7.87;;;9.70;93.40;;;;;;7388447;19;20131;-76
2022/03/27 04:18:06;;;;;;;12.37;7.20;;;9.70;93.50;;;;;;7387294;19;20202;-75
2022/03/27 04:20:33;;;;;;;14.00;7.97;;;9.70;93.40;;;;;;7385720;19;20137;-77
2022/03/27 04:22:59;;;;;;;14.47;7.87;;;9.60;93.50;;;;;;7390717;19;20131;-76
2022/03/27 04:25:24;;;;;;;13.93;8.07;;;9.60;93.60;;;;;;7388077;19;20133;-76
2022/03/27 04:27:51;;;;;;;14.13;7.63;;;9.50;93.90;;;;;;7385776;19;20623;-77
2022/03/27 04:30:17;;;;;;;15.07;8.07;;;9.40;94.20;;;;;;7386456;19;20482;-76
2022/03/27 04:32:43;;;;;;;14.50;7.80;;;9.40;94.20;;;;;;7389826;19;20142;-76
2022/03/27 04:35:10;;;;;;;19.30;8.23;;;9.40;94.10;;;;;;7384436;19;20151;-76
2022/03/27 04:37:40;;;;;;;16.13;8.23;;;9.40;94.10;;;;;;7388764;19;20157;-75
2022/03/27 04:40:06;;;;;;;18.77;8.20;;;9.50;94.10;;;;;;7389821;19;20163;-76
2022/03/27 04:42:35;;;;;;;12.60;7.73;;;9.50;94.00;;;;;;7387107;19;20139;-75
2022/03/27 04:45:01;;;;;;;16.77;7.80;;;9.70;94.20;;;;;;7387169;19;20603;-75
2022/03/27 04:47:26;;;;;;;14.07;7.97;;;9.50;94.30;;;;;;7385978;19;20138;-75
2022/03/27 04:49:52;;;;;;;14.10;7.30;;;9.50;94.40;;;;;;7386075;19;20261;-76
2022/03/27 04:52:18;;;;;;;16.50;7.73;;;9.50;94.40;;;;;;7385514;19;20131;-76
2022/03/27 04:54:44;;;;;;;17.50;8.20;;;9.60;94.20;;;;;;7385898;19;20162;-75
2022/03/27 04:57:09;;;;;;;15.43;8.20;;;9.50;94.10;;;;;;7384900;19;20127;-76
2022/03/27 04:59:35;;;;;;;15.33;8.47;;;9.50;94.30;;;;;;7387767;19;20127;-76
2022/03/27 05:02:01;;;;;;;16.83;8.07;;;9.50;94.20;;;;;;7389656;19;20124;-76
2022/03/27 05:04:27;;;;;;;15.97;8.10;;;9.40;94.30;;;;;;7391103;19;20152;-74
2022/03/27 05:06:53;;;;;;;18.17;9.00;;;9.40;94.50;;;;;;7386885;19;20648;-75
2022/03/27 05:09:19;;;;;;;15.20;8.13;;;9.30;94.70;;;;;;7385358;19;20137;-75
2022/03/27 05:11:45;;;;;;;16.00;8.43;;;9.30;94.70;;;;;;7389693;19;20479;-75
2022/03/27 05:14:12;;;;;;;16.53;8.10;;;9.40;94.70;;;;;;7387416;19;20134;-75
2022/03/27 05:16:38;;;;;;;15.97;8.20;;;9.30;94.80;;;;;;7386439;19;20131;-75
2022/03/27 05:19:07;;;;;;;16.63;8.20;;;9.30;94.70;;;;;;7386119;19;20141;-76
2022/03/27 05:21:34;;;;;;;15.23;7.97;;;9.40;94.80;;;;;;7387975;19;20146;-76
2022/03/27 05:24:01;;;;;;;16.90;7.83;;;9.40;94.70;;;;;;7387220;19;20255;-75
2022/03/27 05:26:27;;;;;;;15.20;7.23;;;9.40;94.70;;;;;;7388021;19;20130;-75
2022/03/27 05:28:54;;;;;;;12.80;7.47;;;9.40;95.00;;;;;;7385278;19;20170;-76
2022/03/27 05:31:21;;;;;;;15.27;8.17;;;9.40;94.60;;;;;;7385895;19;20143;-75
2022/03/27 05:33:46;;;;;;;17.10;7.90;;;9.40;94.60;;;;;;7391650;19;20143;-76
2022/03/27 05:36:13;;;;;;;15.07;7.63;;;9.40;94.90;;;;;;7392335;19;20515;-76
2022/03/27 05:38:40;;;;;;;14.03;7.93;;;9.30;94.90;;;;;;7394123;19;20169;-75
2022/03/27 05:41:11;;;;;;;17.30;8.63;;;9.30;95.00;;;;;;7395125;19;20488;-76
2022/03/27 05:43:37;;;;;;;16.33;8.37;;;9.20;95.20;;;;;;7405941;19;20137;-76
2022/03/27 05:46:03;;;;;;;19.03;8.20;;;9.20;95.40;;;;;;7393003;19;20909;-76
2022/03/27 05:48:29;;;;;;;14.93;8.10;;;9.20;95.20;;;;;;7392407;19;20135;-75
2022/03/27 05:50:54;;;;;;;13.90;7.50;;;9.30;94.80;;;;;;7391904;19;20586;-75
2022/03/27 05:53:21;;;;;;;15.60;8.07;;;9.20;94.80;;;;;;7391376;19;20153;-76
2022/03/27 05:55:47;;;;;;;15.57;8.63;;;9.20;94.90;;;;;;7391772;19;20202;-76
2022/03/27 05:58:13;;;;;;;20.70;8.10;;;9.20;94.90;;;;;;7390862;19;20155;-75
2022/03/27 06:00:40;;;;;;;16.23;8.07;;;9.20;95.10;;;;;;7391419;19;20141;-75
2022/03/27 06:03:06;;;;;;;14.33;8.10;;;9.20;95.00;;;;;;7393777;19;20134;-75
2022/03/27 06:05:31;;;;;;;13.60;7.57;;;9.20;95.40;;;;;;7394621;19;20194;-76
2022/03/27 06:07:58;;;;;;;16.83;8.37;;;9.20;95.50;;;;;;7391648;19;20169;-75
2022/03/27 06:10:31;;;;;;;15.23;7.97;;;9.20;95.70;;;;;;7394820;19;20628;-75
2022/03/27 06:12:59;;;;;;;16.57;8.00;;;9.20;95.70;;;;;;7392463;19;20131;-76
2022/03/27 06:15:25;;;;;;;14.93;8.47;;;9.20;95.60;;;;;;7391265;19;20662;-76
2022/03/27 06:17:53;;;;;;;16.70;8.50;;;9.30;95.50;;;;;;7391864;19;20123;-76
2022/03/27 06:20:25;;;;;;;14.60;7.33;;;9.40;95.40;;;;;;7390294;19;20163;-75
2022/03/27 06:22:52;;;;;;;14.33;7.73;;;9.40;95.20;;;;;;7392650;19;20206;-76
2022/03/27 06:25:22;;;;;;;15.97;8.07;;;9.30;95.20;;;;;;7394898;19;20134;-76
2022/03/27 06:27:49;;;;;;;14.43;7.60;;;9.40;95.30;;;;;;7393185;19;20146;-75
2022/03/27 06:30:17;;;;;;;15.40;8.07;;;9.30;95.20;;;;;;7393106;19;20498;-77
2022/03/27 06:32:44;;;;;;;18.93;9.60;;;9.20;95.20;;;;;;7397556;19;20127;-76
2022/03/27 06:35:11;;;;;;;14.37;7.43;;;9.10;95.50;;;;;;7387800;19;20154;-76
2022/03/27 06:37:38;;;;;;;18.13;7.87;;;9.20;95.30;;;;;;7390270;19;20123;-77
2022/03/27 06:40:05;;;;;;;13.23;7.93;;;9.30;95.30;;;;;;7390580;19;20536;-76
2022/03/27 06:42:31;;;;;;;13.13;7.93;;;9.20;95.30;;;;;;7391747;19;20126;-75
2022/03/27 06:44:58;;;;;;;15.20;7.77;;;9.30;95.50;;;;;;7391061;19;20130;-75
2022/03/27 06:47:26;;;;;;;12.80;7.40;;;9.40;95.30;;;;;;7391989;19;20134;-75
2022/03/27 06:49:55;;;;;;;15.43;7.23;;;9.30;95.30;;;;;;7393927;19;20629;-76
2022/03/27 06:52:22;;;;;;;15.90;8.13;;;9.10;95.60;;;;;;7390475;19;20161;-76
2022/03/27 06:54:48;;;;;;;20.77;8.83;;;9.30;95.80;;;;;;7392126;19;20130;-75
2022/03/27 06:57:14;;;;;;;14.23;7.83;;;9.40;95.30;;;;;;7392641;19;20495;-76
2022/03/27 07:05:12;;;;;;;16.23;8.00;;;9.70;94.80;;;;;;7389091;19;20161;-76
2022/03/27 07:07:38;;;;;;;17.27;8.70;;;9.80;94.70;;;;;;7390837;19;20156;-76
2022/03/27 07:10:04;;;;;;;17.00;8.90;;;9.70;94.90;;;;;;7396014;19;20127;-77
2022/03/27 07:12:30;;;;;;;18.10;9.07;;;9.70;95.20;;;;;;7391207;19;20148;-76
2022/03/27 07:14:57;;;;;;;15.43;8.20;;;9.50;95.40;;;;;;7390891;19;20130;-75
2022/03/27 07:17:23;;;;;;;16.00;8.70;;;9.20;95.60;;;;;;7393223;19;20127;-76
2022/03/27 07:19:49;;;;;;;18.67;8.87;;;9.30;96.10;;;;;;7389595;19;20141;-75
2022/03/27 07:22:14;;;;;;;19.60;9.40;;;9.60;95.40;;;;;;7388868;19;20139;-76
2022/03/27 07:24:41;;;;;;;17.20;9.07;;;9.90;94.90;;;;;;7390508;19;20119;-75
2022/03/27 07:27:08;;;;;;;16.93;8.87;;;9.80;94.90;;;;;;7389988;19;20130;-75
2022/03/27 07:29:35;;;;;;;17.57;9.10;;;9.80;95.00;;;;;;7391392;19;20139;-75
2022/03/27 07:32:02;;;;;;;21.80;9.20;;;9.80;95.10;;;;;;7392907;19;20131;-76
2022/03/27 07:34:27;;;;;;;16.50;9.13;;;9.80;95.00;;;;;;7387665;19;20150;-76
2022/03/27 07:36:53;;;;;;;17.67;8.80;;;10.00;95.00;;;;;;7393831;19;20138;-75
2022/03/27 07:39:21;;;;;;;16.73;9.93;;;9.90;95.00;;;;;;7387710;19;20134;-77
2022/03/27 07:41:47;;;;;;;17.23;10.00;;;9.90;95.10;;;;;;7388409;19;20135;-75
2022/03/27 07:44:13;;;;;;;18.50;9.73;;;10.00;95.00;;;;;;7393133;19;20145;-75
2022/03/27 07:46:38;;;;;;;14.67;9.57;;;10.20;94.90;;;;;;7388133;19;20127;-76
2022/03/27 07:49:04;;;;;;;16.50;9.60;;;10.30;94.70;;;;;;7390638;19;20135;-76
2022/03/27 07:51:30;;;;;;;16.13;8.83;;;10.30;94.70;;;;;;7389966;19;20142;-76
2022/03/27 07:53:55;;;;;;;15.87;9.30;;;10.40;94.70;;;;;;7388830;19;20134;-75
2022/03/27 07:56:21;;;;;;;15.37;9.33;;;10.50;94.60;;;;;;7390455;19;20131;-76
2022/03/27 07:58:47;;;;;;;16.37;9.03;;;10.60;94.40;;;;;;7388378;19;20139;-75
2022/03/27 08:01:15;;;;;;;22.17;9.53;;;10.60;94.40;;;;;;7388573;19;20498;-75
2022/03/27 08:03:41;;;;;;;15.93;9.27;;;10.60;94.30;;;;;;7389257;19;20183;-75
2022/03/27 08:06:10;;;;;;;14.67;9.20;;;10.70;94.10;;;;;;7388750;19;20459;-77
2022/03/27 08:08:36;;;;;;;17.87;9.63;;;10.70;93.90;;;;;;7394807;19;20238;-76
2022/03/27 08:11:02;;;;;;;18.50;9.23;;;10.80;93.70;;;;;;7391827;19;20672;-77
2022/03/27 08:13:28;;;;;;;22.10;9.40;;;11.00;93.60;;;;;;7389320;19;20131;-76
2022/03/27 08:15:54;;;;;;;18.53;9.17;;;11.00;93.20;;;;;;7389391;19;20483;-76
2022/03/27 08:18:28;;;;;;;16.83;8.93;;;11.10;93.10;;;;;;7422512;19;20487;-75
2022/03/27 08:20:54;;;;;;;18.70;9.83;;;11.20;93.00;;;;;;7420933;19;20130;-76
2022/03/27 08:23:22;;;;;;;16.13;8.93;;;11.30;92.90;;;;;;7422083;19;20914;-77
2022/03/27 08:28:33;;;;;;;18.47;9.33;;;11.60;92.60;;;;;;7422699;19;20529;-75
2022/03/27 08:30:58;;;;;;;16.23;8.83;;;11.80;92.40;;;;;;7420244;19;20138;-75
2022/03/27 08:33:24;;;;;;;18.87;9.77;;;12.00;92.30;;;;;;7420568;19;20209;-76
2022/03/27 08:35:50;;;;;;;15.57;8.67;;;12.20;92.10;;;;;;7420910;19;20158;-76
2022/03/27 08:38:17;;;;;;;14.57;8.67;;;12.40;91.90;;;;;;7418574;19;20131;-76
2022/03/27 08:40:45;;;;;;;15.07;9.13;;;12.50;91.80;;;;;;7420914;19;20134;-75
2022/03/27 08:43:16;;;;;;;17.03;9.00;;;12.60;91.70;;;;;;7424610;19;20911;-75
2022/03/27 08:45:44;;;;;;;19.07;8.90;;;12.70;91.70;;;;;;7423517;19;20154;-75
2022/03/27 08:48:11;;;;;;;16.33;9.30;;;12.70;91.70;;;;;;7425852;19;20134;-75
2022/03/27 08:50:55;;;;;;;14.87;9.10;;;12.70;91.80;;;;;;7421768;19;20130;-75
2022/03/27 08:53:34;;;;;;;15.90;8.17;;;12.80;92.10;;;;;;7422206;19;20184;-77
2022/03/27 08:56:06;;;;;;;16.23;8.63;;;12.80;91.70;;;;;;7421672;19;20130;-76
2022/03/27 08:58:42;;;;;;;14.07;7.87;;;13.00;91.80;;;;;;7421507;19;20139;-76
2022/03/27 09:01:08;;;;;;;13.90;8.80;;;13.20;91.60;;;;;;7420203;19;20608;-76
2022/03/27 09:03:37;;;;;;;12.17;7.97;;;13.30;91.40;;;;;;7419768;19;20506;-76
2022/03/27 09:06:08;;;;;;;19.23;8.03;;;13.30;91.30;;;;;;7418913;19;20618;-75
2022/03/27 09:08:34;;;;;;;14.80;8.00;;;13.40;91.20;;;;;;7421101;19;20150;-76
2022/03/27 09:11:01;;;;;;;15.33;8.33;;;13.40;91.10;;;;;;7429887;19;20141;-76
2022/03/27 09:13:27;;;;;;;14.17;8.07;;;13.50;91.00;;;;;;7420373;19;20147;-76
2022/03/27 09:16:01;;;;;;;14.53;7.80;;;13.60;91.00;;;;;;7420184;19;20134;-76
2022/03/27 09:18:47;;;;;;;12.57;7.18;;;13.70;91.00;;;;;;7420571;19;20471;-76
2022/03/27 09:21:14;;;;;;;11.50;7.27;;;13.90;90.70;;;;;;7423120;19;20153;-75
2022/03/27 09:23:40;;;;;;;12.53;7.43;;;14.10;90.80;;;;;;7419769;19;20141;-76
2022/03/27 09:26:11;;;;;;;13.13;7.68;;;14.30;90.30;;;;;;7417863;19;20153;-76
2022/03/27 09:28:42;;;;;;;11.93;7.70;;;14.40;90.30;;;;;;7403956;19;20594;-76
2022/03/27 09:31:14;;;;;;;17.07;8.23;;;14.40;90.30;;;;;;7392189;19;20127;-76
2022/03/27 09:33:49;;;;;;;15.30;7.40;;;14.50;90.10;;;;;;7396909;19;20140;-76
2022/03/27 09:36:35;;;;;;;12.50;7.43;;;14.50;90.10;;;;;;7389394;19;20615;-77
2022/03/27 09:39:16;;;;;;;13.18;8.00;;;14.60;90.10;;;;;;7390060;19;20130;-77
2022/03/27 09:41:46;;;;;;;13.77;7.15;;;14.70;90.00;;;;;;7390401;19;20978;-77
2022/03/27 09:44:20;;;;;;;15.83;8.40;;;14.60;90.00;;;;;;7393047;19;20122;-76
2022/03/27 09:46:47;;;;;;;12.35;8.23;;;14.60;90.00;;;;;;7389650;19;20137;-76
2022/03/27 09:49:18;;;;;;;14.85;8.38;;;14.70;90.00;;;;;;7392206;19;20573;-76
2022/03/27 09:51:54;;;;;;;13.75;7.68;;;14.80;89.60;;;;;;7390003;19;20138;-76
2022/03/27 09:54:21;;;;;;;16.20;7.88;;;14.90;89.30;;;;;;7390875;19;20126;-76
2022/03/27 09:56:47;;;;;;;15.75;7.32;;;15.00;89.30;;;;;;7393467;19;20145;-76
2022/03/27 09:59:46;;;;;;;13.38;7.72;;;15.00;88.90;;;;;;7390724;19;20198;-77
2022/03/27 10:02:27;;;;;;;13.75;7.63;;;15.20;88.70;;;;;;7387777;19;20123;-77
2022/03/27 10:04:55;;;;;;;15.85;7.65;;;15.50;88.30;;;;;;7389493;19;20134;-76
2022/03/27 10:07:25;;;;;;;12.88;7.60;;;15.60;87.30;;;;;;7392971;19;20177;-77
2022/03/27 10:09:55;;;;;;;15.48;8.60;;;15.60;86.90;;;;;;7391429;19;20154;-76
2022/03/27 10:12:34;;;;;;;16.65;7.38;;;15.70;86.80;;;;;;7393356;19;20138;-76
2022/03/27 10:15:06;;;;;;;12.63;7.20;;;15.80;86.80;;;;;;7390717;19;20127;-76
2022/03/27 10:17:33;;;;;;;12.90;7.53;;;15.80;86.70;;;;;;7393249;19;20206;-75
2022/03/27 10:20:08;;;;;;;15.43;7.05;;;15.90;86.30;;;;;;7389507;19;20621;-77
2022/03/27 10:22:39;;;;;;;18.17;7.82;;;16.00;86.00;;;;;;7387869;19;20605;-77
2022/03/27 10:25:08;;;;;;;11.90;7.70;;;15.90;86.00;;;;;;7388765;19;20134;-76
2022/03/27 10:27:35;;;;;;;13.65;7.38;;;16.00;85.80;;;;;;7389068;19;20194;-76
2022/03/27 10:30:04;;;;;;;10.88;7.18;;;16.00;85.70;;;;;;7390707;19;20134;-77
2022/03/27 10:32:33;;;;;;;12.18;7.15;;;16.00;85.70;;;;;;7391635;19;20134;-77
2022/03/27 10:35:13;;;;;;;14.07;7.75;;;16.10;85.80;;;;;;7387985;19;20127;-77
2022/03/27 10:38:18;;;;;;;13.45;7.50;;;16.20;85.50;;;;;;7389460;19;20649;-77
2022/03/27 10:41:17;;;;;;;13.35;7.80;;;16.40;84.90;;;;;;7386333;19;20146;-77
2022/03/27 10:43:57;;;;;;;14.38;7.68;;;16.50;84.80;;;;;;7392485;19;20127;-77
2022/03/27 10:46:24;;;;;;;12.23;6.85;;;16.60;84.80;;;;;;7389239;19;20164;-77
2022/03/27 10:48:53;;;;;;;12.18;7.28;;;16.70;84.70;;;;;;7391032;19;20155;-76
2022/03/27 10:51:25;;;;;;;13.75;6.97;;;16.70;84.90;;;;;;7389448;19;20518;-77
2022/03/27 10:54:02;;;;;;;14.52;7.40;;;16.80;85.00;;;;;;7389234;19;20151;-77
2022/03/27 10:56:40;;;;;;;12.90;7.90;;;16.80;84.50;;;;;;7388572;19;20126;-77
2022/03/27 10:59:25;;;;;;;13.13;6.97;;;16.80;84.80;;;;;;7392486;19;20162;-77
2022/03/27 11:01:58;;;;;;;13.63;7.60;;;16.90;84.40;;;;;;7387941;19;20150;-77
2022/03/27 11:04:41;;;;;;;13.60;7.82;;;17.10;84.10;;;;;;7387147;19;20157;-77
2022/03/27 11:07:16;;;;;;;15.05;8.13;;;17.20;84.60;;;;;;7386965;19;20131;-76
2022/03/27 11:09:44;;;;;;;11.07;6.97;;;17.20;84.50;;;;;;7387121;19;20142;-77
2022/03/27 11:12:22;;;;;;;13.00;6.55;;;17.30;83.90;;;;;;7386723;19;20130;-77
2022/03/27 11:15:07;;;;;;;17.15;7.90;;;17.50;83.50;;;;;;7387022;19;20142;-77
2022/03/27 11:17:38;;;;;;;13.85;7.10;;;17.60;83.70;;;;;;7386667;19;20146;-76
2022/03/27 11:20:06;;;;;;;13.07;7.38;;;17.60;82.20;;;;;;7388239;19;20138;-76
2022/03/27 11:22:42;;;;;;;20.33;12.93;;;17.50;82.00;;;;;;7386789;19;20134;-78
2022/03/27 11:25:36;;;;;;;15.65;8.88;;;17.60;82.00;;;;;;7389368;19;20130;-77
2022/03/27 11:28:11;;;;;;;14.98;7.65;;;17.90;82.00;;;;;;7391099;19;20507;-78
2022/03/27 11:30:45;;;;;;;11.98;6.45;;;18.20;80.30;;;;;;7387760;19;20530;-77
2022/03/27 11:33:18;;;;;;;14.00;8.20;;;18.30;79.00;;;;;;7392231;19;20130;-79
2022/03/27 11:36:09;;;;;;;15.18;6.40;;;18.50;78.40;;;;;;7387500;19;20501;-77
2022/03/27 11:38:37;;;;;;;14.05;6.65;;;18.50;77.20;;;;;;7386844;19;20499;-77
2022/03/27 11:41:34;;;;;;;11.50;6.07;;;18.50;75.00;;;;;;7388460;19;20162;-78
2022/03/27 11:44:18;;;;;;;13.43;6.78;;;18.40;74.90;;;;;;7392471;19;20250;-77
2022/03/27 11:46:55;;;;;;;10.02;6.20;;;18.60;74.10;;;;;;7386269;19;20149;-79
2022/03/27 11:49:23;;;;;;;11.18;6.15;;;18.60;74.20;;;;;;7386662;19;20189;-77
2022/03/27 11:52:07;;;;;;;11.30;6.10;;;18.80;73.10;;;;;;7392529;19;20133;-77
2022/03/27 11:54:33;;;;;;;9.85;5.43;;;19.00;72.70;;;;;;7387276;19;20597;-77
2022/03/27 11:57:01;;;;;;;8.02;4.82;;;19.00;71.30;;;;;;7384682;19;20134;-78
2022/03/27 11:59:28;;;;;;;12.50;5.72;;;19.00;70.80;;;;;;7386684;19;20134;-77
2022/03/27 12:02:01;;;;;;;10.90;5.85;;;19.10;70.20;;;;;;7387188;19;20139;-78
2022/03/27 12:04:27;;;;;;;7.95;5.32;;;19.10;69.30;;;;;;7386899;19;20137;-78
2022/03/27 12:06:54;;;;;;;9.88;5.28;;;19.30;69.20;;;;;;7385785;19;20141;-77
2022/03/27 12:09:31;;;;;;;7.95;5.05;;;19.30;68.70;;;;;;7386220;19;20151;-77
2022/03/27 12:12:11;;;;;;;8.70;5.20;;;19.20;68.80;;;;;;7387182;19;20130;-77
2022/03/27 12:14:50;;;;;;;15.52;8.00;;;19.20;68.80;;;;;;7391101;19;20137;-77
2022/03/27 12:17:18;;;;;;;16.17;7.18;;;19.30;68.70;;;;;;7383183;19;20142;-78
2022/03/27 12:20:22;;;;;;;13.18;6.63;;;19.40;67.70;;;;;;7384710;19;20135;-77
2022/03/27 12:22:53;;;;;;;25.38;11.15;;;19.60;67.00;;;;;;7382367;19;20146;-77
2022/03/27 12:25:28;;;;;;;11.88;5.75;;;19.60;66.30;;;;;;7383238;19;20137;-78
2022/03/27 12:30:50;;;;;;;10.75;5.47;;;19.50;65.90;;;;;;7384003;19;20906;-77
2022/03/27 12:33:23;;;;;;;83.10;37.13;;;19.40;66.40;;;;;;7385276;19;20162;-78
2022/03/27 12:36:06;;;;;;;15.30;6.20;;;19.60;66.40;;;;;;7390363;19;20130;-79
2022/03/27 12:38:34;;;;;;;12.63;6.95;;;19.60;65.30;;;;;;7384063;19;20481;-77
2022/03/27 12:41:02;;;;;;;30.02;13.18;;;19.50;65.30;;;;;;7384755;19;20606;-76
2022/03/27 12:43:28;;;;;;;14.05;7.22;;;19.60;65.50;;;;;;7387270;19;20139;-79
2022/03/27 12:45:56;;;;;;;8.93;5.38;;;19.60;65.50;;;;;;7385511;19;20131;-78
2022/03/27 12:48:25;;;;;;;10.90;5.13;;;19.80;65.30;;;;;;7384073;19;20150;-78
2022/03/27 12:50:54;;;;;;;9.13;5.55;;;19.90;64.30;;;;;;7384123;19;20493;-77
2022/03/27 12:53:20;;;;;;;12.88;5.38;;;19.80;63.30;;;;;;7386514;19;20569;-77
2022/03/27 12:55:46;;;;;;;9.48;5.30;;;19.80;63.60;;;;;;7384465;19;20131;-77
2022/03/27 12:58:14;;;;;;;9.93;5.20;;;19.90;63.30;;;;;;7388955;19;20131;-78
2022/03/27 13:00:41;;;;;;;9.02;4.82;;;20.00;63.10;;;;;;7385421;19;20146;-77